sensor_id;sensor_type;location;lat;lon;timestamp;temperature;humidity
54796;DHT22;40693;43.884;20.340;2023-02-14T00:00:38;128.50;2252.80
54796;DHT22;40693;43.884;20.340;2023-02-14T00:03:04;128.50;2252.80
54796;DHT22;40693;43.884;20.340;2023-02-14T00:05:29;128.60;2252.80
54796;DHT22;40693;43.884;20.340;2023-02-14T00:07:55;128.60;2252.80
54796;DHT22;40693;43.884;20.340;2023-02-14T00:10:20;128.70;2252.80
54796;DHT22;40693;43.884;20.340;2023-02-14T00:12:46;128.60;2252.80
54796;DHT22;40693;43.884;20.340;2023-02-14T00:15:12;128.60;2252.80
54796;DHT22;40693;43.884;20.340;2023-02-14T00:17:47;128.60;2252.80
54796;DHT22;40693;43.884;20.340;2023-02-14T00:20:13;128.70;2252.80
54796;DHT22;40693;43.884;20.340;2023-02-14T00:22:38;128.70;2252.80
54796;DHT22;40693;43.884;20.340;2023-02-14T00:25:04;128.70;2252.80
54796;DHT22;40693;43.884;20.340;2023-02-14T00:27:30;128.70;2252.80
54796;DHT22;40693;43.884;20.340;2023-02-14T00:29:55;128.70;2252.80
54796;DHT22;40693;43.884;20.340;2023-02-14T00:32:26;128.70;2252.80
54796;DHT22;40693;43.884;20.340;2023-02-14T00:34:52;128.70;2252.80
54796;DHT22;40693;43.884;20.340;2023-02-14T00:37:17;128.70;2252.80
54796;DHT22;40693;43.884;20.340;2023-02-14T00:39:43;128.60;2252.80
54796;DHT22;40693;43.884;20.340;2023-02-14T00:42:10;128.50;2252.80
54796;DHT22;40693;43.884;20.340;2023-02-14T00:44:39;128.40;2252.80
54796;DHT22;40693;43.884;20.340;2023-02-14T00:47:05;128.40;2252.80
54796;DHT22;40693;43.884;20.340;2023-02-14T00:49:30;128.70;2252.80
54796;DHT22;40693;43.884;20.340;2023-02-14T00:51:56;153.60;2252.80
54796;DHT22;40693;43.884;20.340;2023-02-14T00:54:22;128.50;2252.80
54796;DHT22;40693;43.884;20.340;2023-02-14T00:56:47;128.50;2252.80
54796;DHT22;40693;43.884;20.340;2023-02-14T00:59:13;128.50;2252.80
54796;DHT22;40693;43.884;20.340;2023-02-14T01:01:39;128.60;2252.80
54796;DHT22;40693;43.884;20.340;2023-02-14T01:04:04;128.60;2252.80
54796;DHT22;40693;43.884;20.340;2023-02-14T01:06:30;153.70;2252.80
54796;DHT22;40693;43.884;20.340;2023-02-14T01:08:56;128.80;2252.80
54796;DHT22;40693;43.884;20.340;2023-02-14T01:11:22;128.60;2252.80
54796;DHT22;40693;43.884;20.340;2023-02-14T01:13:49;128.60;2252.80
54796;DHT22;40693;43.884;20.340;2023-02-14T01:16:16;128.70;2252.80
54796;DHT22;40693;43.884;20.340;2023-02-14T01:18:42;128.60;2252.80
54796;DHT22;40693;43.884;20.340;2023-02-14T01:21:13;128.30;2252.80
54796;DHT22;40693;43.884;20.340;2023-02-14T01:23:38;128.60;2252.80
54796;DHT22;40693;43.884;20.340;2023-02-14T01:26:05;128.60;2252.80
54796;DHT22;40693;43.884;20.340;2023-02-14T01:28:31;128.60;2252.80
54796;DHT22;40693;43.884;20.340;2023-02-14T01:30:56;128.60;2252.80
54796;DHT22;40693;43.884;20.340;2023-02-14T01:33:22;128.60;2252.80
54796;DHT22;40693;43.884;20.340;2023-02-14T01:35:48;128.70;2252.80
54796;DHT22;40693;43.884;20.340;2023-02-14T01:38:13;128.80;2252.80
54796;DHT22;40693;43.884;20.340;2023-02-14T01:40:42;128.80;2252.80
54796;DHT22;40693;43.884;20.340;2023-02-14T01:43:14;128.80;2252.80
54796;DHT22;40693;43.884;20.340;2023-02-14T01:45:40;128.90;2252.80
54796;DHT22;40693;43.884;20.340;2023-02-14T01:48:05;128.80;2252.80
54796;DHT22;40693;43.884;20.340;2023-02-14T01:50:33;153.60;2252.80
54796;DHT22;40693;43.884;20.340;2023-02-14T01:53:03;153.60;2252.80
54796;DHT22;40693;43.884;20.340;2023-02-14T01:55:35;153.60;2252.80
54796;DHT22;40693;43.884;20.340;2023-02-14T01:58:02;153.70;2252.80
54796;DHT22;40693;43.884;20.340;2023-02-14T02:00:29;153.70;2252.80
54796;DHT22;40693;43.884;20.340;2023-02-14T02:03:13;153.70;2252.80
54796;DHT22;40693;43.884;20.340;2023-02-14T02:05:41;153.70;2252.80
54796;DHT22;40693;43.884;20.340;2023-02-14T02:08:09;153.80;2252.80
54796;DHT22;40693;43.884;20.340;2023-02-14T02:10:35;153.80;2252.80
54796;DHT22;40693;43.884;20.340;2023-02-14T02:13:02;153.80;2252.80
54796;DHT22;40693;43.884;20.340;2023-02-14T02:15:29;153.80;2252.80
54796;DHT22;40693;43.884;20.340;2023-02-14T02:18:02;153.80;2252.80
54796;DHT22;40693;43.884;20.340;2023-02-14T02:50:02;153.80;2252.80
54796;DHT22;40693;43.884;20.340;2023-02-14T02:52:51;153.80;2252.80
54796;DHT22;40693;43.884;20.340;2023-02-14T02:58:16;153.70;2252.80
54796;DHT22;40693;43.884;20.340;2023-02-14T03:00:42;153.60;2252.80
54796;DHT22;40693;43.884;20.340;2023-02-14T03:03:08;128.90;2252.80
54796;DHT22;40693;43.884;20.340;2023-02-14T03:05:53;153.60;2252.80
54796;DHT22;40693;43.884;20.340;2023-02-14T03:08:19;128.90;2252.80
54796;DHT22;40693;43.884;20.340;2023-02-14T03:10:45;153.70;2252.80
54796;DHT22;40693;43.884;20.340;2023-02-14T03:13:34;128.70;2252.80
54796;DHT22;40693;43.884;20.340;2023-02-14T03:16:08;153.60;2252.80
54796;DHT22;40693;43.884;20.340;2023-02-14T03:18:42;153.70;2252.80
54796;DHT22;40693;43.884;20.340;2023-02-14T03:22:02;153.70;2252.80
54796;DHT22;40693;43.884;20.340;2023-02-14T03:29:24;153.70;2252.80
54796;DHT22;40693;43.884;20.340;2023-02-14T03:37:09;153.80;2252.80
54796;DHT22;40693;43.884;20.340;2023-02-14T03:42:06;153.80;2252.80
54796;DHT22;40693;43.884;20.340;2023-02-14T03:44:33;153.70;2252.80
54796;DHT22;40693;43.884;20.340;2023-02-14T03:47:01;153.80;2252.80
54796;DHT22;40693;43.884;20.340;2023-02-14T03:49:29;153.80;2252.80
54796;DHT22;40693;43.884;20.340;2023-02-14T03:51:57;153.70;2252.80
54796;DHT22;40693;43.884;20.340;2023-02-14T03:54:23;153.70;2252.80
54796;DHT22;40693;43.884;20.340;2023-02-14T03:56:51;153.80;2252.80
54796;DHT22;40693;43.884;20.340;2023-02-14T03:59:22;153.70;2252.80
54796;DHT22;40693;43.884;20.340;2023-02-14T04:04:14;153.80;2252.80
54796;DHT22;40693;43.884;20.340;2023-02-14T04:06:42;153.90;2252.80
54796;DHT22;40693;43.884;20.340;2023-02-14T04:09:08;153.90;2252.80
54796;DHT22;40693;43.884;20.340;2023-02-14T04:11:33;153.90;2252.80
54796;DHT22;40693;43.884;20.340;2023-02-14T04:14:00;153.90;2252.80
54796;DHT22;40693;43.884;20.340;2023-02-14T04:16:26;153.80;2252.80
54796;DHT22;40693;43.884;20.340;2023-02-14T04:18:51;153.90;2252.80
54796;DHT22;40693;43.884;20.340;2023-02-14T04:21:35;153.90;2252.80
54796;DHT22;40693;43.884;20.340;2023-02-14T04:24:01;153.80;2252.80
54796;DHT22;40693;43.884;20.340;2023-02-14T04:26:27;154.50;2252.80
54796;DHT22;40693;43.884;20.340;2023-02-14T04:28:52;153.80;2252.80
54796;DHT22;40693;43.884;20.340;2023-02-14T04:31:18;153.80;2252.80
54796;DHT22;40693;43.884;20.340;2023-02-14T04:33:43;153.80;2252.80
54796;DHT22;40693;43.884;20.340;2023-02-14T04:36:10;153.90;2252.80
54796;DHT22;40693;43.884;20.340;2023-02-14T04:38:35;153.80;2252.80
54796;DHT22;40693;43.884;20.340;2023-02-14T04:41:01;153.80;2252.80
54796;DHT22;40693;43.884;20.340;2023-02-14T04:43:27;153.80;2252.80
54796;DHT22;40693;43.884;20.340;2023-02-14T04:45:52;153.70;2252.80
54796;DHT22;40693;43.884;20.340;2023-02-14T04:48:18;153.80;2252.80
54796;DHT22;40693;43.884;20.340;2023-02-14T04:50:44;153.80;2252.80
54796;DHT22;40693;43.884;20.340;2023-02-14T04:53:09;153.90;2252.80
54796;DHT22;40693;43.884;20.340;2023-02-14T04:55:35;153.90;2252.80
54796;DHT22;40693;43.884;20.340;2023-02-14T04:58:01;153.90;2252.80
54796;DHT22;40693;43.884;20.340;2023-02-14T05:00:26;154.00;2252.80
54796;DHT22;40693;43.884;20.340;2023-02-14T05:02:52;154.00;2252.80
54796;DHT22;40693;43.884;20.340;2023-02-14T05:05:17;154.10;2252.80
54796;DHT22;40693;43.884;20.340;2023-02-14T05:07:43;154.10;2252.80
54796;DHT22;40693;43.884;20.340;2023-02-14T05:10:12;154.10;2252.80
54796;DHT22;40693;43.884;20.340;2023-02-14T05:12:37;154.10;2252.80
54796;DHT22;40693;43.884;20.340;2023-02-14T05:15:03;154.10;2252.80
54796;DHT22;40693;43.884;20.340;2023-02-14T05:17:31;154.20;2252.80
54796;DHT22;40693;43.884;20.340;2023-02-14T05:19:58;154.20;2252.80
54796;DHT22;40693;43.884;20.340;2023-02-14T05:22:23;154.30;2252.80
54796;DHT22;40693;43.884;20.340;2023-02-14T05:24:49;154.30;2252.80
54796;DHT22;40693;43.884;20.340;2023-02-14T05:27:14;154.30;2252.80
54796;DHT22;40693;43.884;20.340;2023-02-14T05:29:40;154.30;2252.80
54796;DHT22;40693;43.884;20.340;2023-02-14T05:32:06;154.30;2252.80
54796;DHT22;40693;43.884;20.340;2023-02-14T05:34:32;154.30;2252.80
54796;DHT22;40693;43.884;20.340;2023-02-14T05:36:58;154.40;2252.80
54796;DHT22;40693;43.884;20.340;2023-02-14T05:39:24;154.40;2252.80
54796;DHT22;40693;43.884;20.340;2023-02-14T05:41:49;154.40;2252.80
54796;DHT22;40693;43.884;20.340;2023-02-14T05:44:15;154.40;2252.80
54796;DHT22;40693;43.884;20.340;2023-02-14T05:46:41;154.40;2252.80
54796;DHT22;40693;43.884;20.340;2023-02-14T05:49:07;154.40;2252.80
54796;DHT22;40693;43.884;20.340;2023-02-14T05:51:32;154.40;2252.80
54796;DHT22;40693;43.884;20.340;2023-02-14T05:53:58;154.50;2252.80
54796;DHT22;40693;43.884;20.340;2023-02-14T05:56:27;153.90;2252.80
54796;DHT22;40693;43.884;20.340;2023-02-14T05:58:53;154.40;2252.80
54796;DHT22;40693;43.884;20.340;2023-02-14T06:01:18;154.40;2252.80
54796;DHT22;40693;43.884;20.340;2023-02-14T06:03:44;154.50;2252.80
54796;DHT22;40693;43.884;20.340;2023-02-14T06:06:10;154.50;2252.80
54796;DHT22;40693;43.884;20.340;2023-02-14T06:08:35;154.50;2252.80
54796;DHT22;40693;43.884;20.340;2023-02-14T06:11:01;154.50;2252.80
54796;DHT22;40693;43.884;20.340;2023-02-14T06:13:26;154.50;2252.80
54796;DHT22;40693;43.884;20.340;2023-02-14T06:15:52;154.50;2252.80
54796;DHT22;40693;43.884;20.340;2023-02-14T06:18:18;154.50;2252.80
54796;DHT22;40693;43.884;20.340;2023-02-14T06:20:43;154.50;2252.80
54796;DHT22;40693;43.884;20.340;2023-02-14T06:23:09;154.50;2252.80
54796;DHT22;40693;43.884;20.340;2023-02-14T06:25:35;154.50;2252.80
54796;DHT22;40693;43.884;20.340;2023-02-14T06:28:00;154.50;2252.80
54796;DHT22;40693;43.884;20.340;2023-02-14T06:30:26;154.40;2252.80
54796;DHT22;40693;43.884;20.340;2023-02-14T06:32:52;154.40;2252.80
54796;DHT22;40693;43.884;20.340;2023-02-14T06:35:18;154.10;2252.80
54796;DHT22;40693;43.884;20.340;2023-02-14T06:37:43;154.40;2252.80
54796;DHT22;40693;43.884;20.340;2023-02-14T06:40:10;154.40;2252.80
54796;DHT22;40693;43.884;20.340;2023-02-14T06:42:36;154.40;2252.80
54796;DHT22;40693;43.884;20.340;2023-02-14T06:45:03;154.40;2252.80
54796;DHT22;40693;43.884;20.340;2023-02-14T06:47:28;154.40;2252.80
54796;DHT22;40693;43.884;20.340;2023-02-14T06:49:54;154.40;2252.80
54796;DHT22;40693;43.884;20.340;2023-02-14T06:52:20;154.40;2252.80
54796;DHT22;40693;43.884;20.340;2023-02-14T06:54:45;154.40;2252.80
54796;DHT22;40693;43.884;20.340;2023-02-14T06:57:11;154.40;2252.80
54796;DHT22;40693;43.884;20.340;2023-02-14T06:59:37;154.40;2252.80
54796;DHT22;40693;43.884;20.340;2023-02-14T07:02:02;154.40;2252.80
54796;DHT22;40693;43.884;20.340;2023-02-14T07:04:28;154.50;2252.80
54796;DHT22;40693;43.884;20.340;2023-02-14T07:06:54;154.50;2252.80
54796;DHT22;40693;43.884;20.340;2023-02-14T07:09:19;154.50;2252.80
54796;DHT22;40693;43.884;20.340;2023-02-14T07:11:45;154.50;2252.80
54796;DHT22;40693;43.884;20.340;2023-02-14T07:14:11;154.50;2252.80
54796;DHT22;40693;43.884;20.340;2023-02-14T07:16:37;154.50;2252.80
54796;DHT22;40693;43.884;20.340;2023-02-14T07:19:03;154.50;2252.80
54796;DHT22;40693;43.884;20.340;2023-02-14T07:21:28;154.50;2252.80
54796;DHT22;40693;43.884;20.340;2023-02-14T07:23:54;154.50;2252.80
54796;DHT22;40693;43.884;20.340;2023-02-14T07:26:20;154.50;2252.80
54796;DHT22;40693;43.884;20.340;2023-02-14T07:28:46;179.20;2252.80
54796;DHT22;40693;43.884;20.340;2023-02-14T07:31:14;179.20;2252.80
54796;DHT22;40693;43.884;20.340;2023-02-14T07:33:39;179.20;2252.80
54796;DHT22;40693;43.884;20.340;2023-02-14T07:36:05;179.20;2252.80
54796;DHT22;40693;43.884;20.340;2023-02-14T07:38:31;179.20;2252.80
54796;DHT22;40693;43.884;20.340;2023-02-14T07:40:57;179.20;2252.80
54796;DHT22;40693;43.884;20.340;2023-02-14T07:43:23;179.20;2252.80
54796;DHT22;40693;43.884;20.340;2023-02-14T07:45:48;179.20;2252.80
54796;DHT22;40693;43.884;20.340;2023-02-14T07:48:14;179.20;2252.80
54796;DHT22;40693;43.884;20.340;2023-02-14T07:50:39;179.20;2252.80
54796;DHT22;40693;43.884;20.340;2023-02-14T07:53:05;179.20;2252.80
54796;DHT22;40693;43.884;20.340;2023-02-14T07:55:33;179.20;2252.80
54796;DHT22;40693;43.884;20.340;2023-02-14T07:57:58;179.70;2252.80
54796;DHT22;40693;43.884;20.340;2023-02-14T08:00:24;154.30;2252.80
54796;DHT22;40693;43.884;20.340;2023-02-14T08:02:50;179.20;2252.80
54796;DHT22;40693;43.884;20.340;2023-02-14T08:05:16;179.20;2252.80
54796;DHT22;40693;43.884;20.340;2023-02-14T08:07:41;179.20;2252.80
54796;DHT22;40693;43.884;20.340;2023-02-14T08:10:08;179.20;2252.80
54796;DHT22;40693;43.884;20.340;2023-02-14T08:12:34;179.20;2252.80
54796;DHT22;40693;43.884;20.340;2023-02-14T08:15:18;179.20;2252.80
54796;DHT22;40693;43.884;20.340;2023-02-14T08:18:02;179.20;2252.80
54796;DHT22;40693;43.884;20.340;2023-02-14T08:20:28;179.20;2252.80
54796;DHT22;40693;43.884;20.340;2023-02-14T08:22:54;179.20;2252.80
54796;DHT22;40693;43.884;20.340;2023-02-14T08:25:19;179.20;2252.80
54796;DHT22;40693;43.884;20.340;2023-02-14T08:27:45;179.20;2252.80
54796;DHT22;40693;43.884;20.340;2023-02-14T08:30:10;179.20;2252.80
54796;DHT22;40693;43.884;20.340;2023-02-14T08:32:36;179.30;2252.80
54796;DHT22;40693;43.884;20.340;2023-02-14T08:35:05;179.20;2252.80
54796;DHT22;40693;43.884;20.340;2023-02-14T08:37:30;179.20;2252.80
54796;DHT22;40693;43.884;20.340;2023-02-14T08:39:56;179.30;2252.80
54796;DHT22;40693;43.884;20.340;2023-02-14T08:42:22;179.30;2252.80
54796;DHT22;40693;43.884;20.340;2023-02-14T08:44:47;179.30;2252.80
54796;DHT22;40693;43.884;20.340;2023-02-14T08:47:13;179.40;2252.80
54796;DHT22;40693;43.884;20.340;2023-02-14T08:49:38;179.40;2252.80
54796;DHT22;40693;43.884;20.340;2023-02-14T08:52:04;179.30;2252.80
54796;DHT22;40693;43.884;20.340;2023-02-14T08:54:30;179.50;2252.80
54796;DHT22;40693;43.884;20.340;2023-02-14T08:56:56;179.60;2252.80
54796;DHT22;40693;43.884;20.340;2023-02-14T08:59:22;179.50;2252.80
54796;DHT22;40693;43.884;20.340;2023-02-14T09:01:47;179.50;2252.80
54796;DHT22;40693;43.884;20.340;2023-02-14T09:04:13;179.60;2252.80
54796;DHT22;40693;43.884;20.340;2023-02-14T09:06:39;179.60;2252.80
54796;DHT22;40693;43.884;20.340;2023-02-14T09:09:05;179.60;2252.80
54796;DHT22;40693;43.884;20.340;2023-02-14T09:11:30;179.20;2252.80
54796;DHT22;40693;43.884;20.340;2023-02-14T09:13:56;179.70;2252.80
54796;DHT22;40693;43.884;20.340;2023-02-14T09:16:22;180.10;2252.80
54796;DHT22;40693;43.884;20.340;2023-02-14T09:18:48;179.70;2252.80
54796;DHT22;40693;43.884;20.340;2023-02-14T09:21:15;179.60;2252.80
54796;DHT22;40693;43.884;20.340;2023-02-14T09:23:41;179.70;2252.80
54796;DHT22;40693;43.884;20.340;2023-02-14T09:26:09;179.60;2252.80
54796;DHT22;40693;43.884;20.340;2023-02-14T09:28:35;179.80;2252.80
54796;DHT22;40693;43.884;20.340;2023-02-14T09:31:11;179.80;2252.80
54796;DHT22;40693;43.884;20.340;2023-02-14T09:33:37;179.80;2252.80
54796;DHT22;40693;43.884;20.340;2023-02-14T09:36:22;179.70;2252.80
54796;DHT22;40693;43.884;20.340;2023-02-14T09:38:47;179.90;2252.80
54796;DHT22;40693;43.884;20.340;2023-02-14T09:41:36;179.90;2252.80
54796;DHT22;40693;43.884;20.340;2023-02-14T09:44:06;179.90;2252.80
54796;DHT22;40693;43.884;20.340;2023-02-14T09:46:46;180.00;2252.80
54796;DHT22;40693;43.884;20.340;2023-02-14T09:49:13;180.00;2252.80
54796;DHT22;40693;43.884;20.340;2023-02-14T09:51:41;180.00;2252.80
54796;DHT22;40693;43.884;20.340;2023-02-14T09:54:13;180.00;2252.80
54796;DHT22;40693;43.884;20.340;2023-02-14T09:56:51;180.00;2252.80
54796;DHT22;40693;43.884;20.340;2023-02-14T10:01:45;180.10;2252.80
54796;DHT22;40693;43.884;20.340;2023-02-14T10:06:59;180.10;2252.80
54796;DHT22;40693;43.884;20.340;2023-02-14T10:12:26;204.80;2252.80
54796;DHT22;40693;43.884;20.340;2023-02-14T10:14:54;204.80;2252.80
54796;DHT22;40693;43.884;20.340;2023-02-14T10:17:30;204.80;2252.80
54796;DHT22;40693;43.884;20.340;2023-02-14T10:20:01;204.80;2252.80
54796;DHT22;40693;43.884;20.340;2023-02-14T10:22:44;204.90;2252.80
54796;DHT22;40693;43.884;20.340;2023-02-14T10:25:19;204.90;2252.80
54796;DHT22;40693;43.884;20.340;2023-02-14T10:27:46;204.90;2252.80
54796;DHT22;40693;43.884;20.340;2023-02-14T10:30:19;204.90;2252.80
54796;DHT22;40693;43.884;20.340;2023-02-14T10:35:48;204.90;2252.80
54796;DHT22;40693;43.884;20.340;2023-02-14T10:46:14;205.00;2252.80
54796;DHT22;40693;43.884;20.340;2023-02-14T10:56:33;205.00;2252.80
54796;DHT22;40693;43.884;20.340;2023-02-14T10:59:10;205.10;2252.80
54796;DHT22;40693;43.884;20.340;2023-02-14T11:01:39;205.10;2252.80
54796;DHT22;40693;43.884;20.340;2023-02-14T11:04:05;205.10;2252.80
54796;DHT22;40693;43.884;20.340;2023-02-14T11:06:33;204.90;2252.80
54796;DHT22;40693;43.884;20.340;2023-02-14T11:08:58;205.20;2252.80
54796;DHT22;40693;43.884;20.340;2023-02-14T11:11:26;205.20;2252.80
54796;DHT22;40693;43.884;20.340;2023-02-14T11:13:53;205.20;2252.80
54796;DHT22;40693;43.884;20.340;2023-02-14T11:16:32;205.20;2252.80
54796;DHT22;40693;43.884;20.340;2023-02-14T11:21:38;205.20;2252.80
54796;DHT22;40693;43.884;20.340;2023-02-14T11:24:15;205.20;2252.80
54796;DHT22;40693;43.884;20.340;2023-02-14T11:26:43;205.20;2252.80
54796;DHT22;40693;43.884;20.340;2023-02-14T11:29:10;205.20;2252.80
54796;DHT22;40693;43.884;20.340;2023-02-14T11:31:37;205.20;2252.80
54796;DHT22;40693;43.884;20.340;2023-02-14T11:36:48;205.20;2252.80
54796;DHT22;40693;43.884;20.340;2023-02-14T11:39:28;205.20;2252.80
54796;DHT22;40693;43.884;20.340;2023-02-14T11:41:56;205.20;2252.80
54796;DHT22;40693;43.884;20.340;2023-02-14T11:44:24;205.20;2252.80
54796;DHT22;40693;43.884;20.340;2023-02-14T11:46:51;205.20;2252.80
54796;DHT22;40693;43.884;20.340;2023-02-14T11:49:27;205.20;2252.80
54796;DHT22;40693;43.884;20.340;2023-02-14T11:51:55;205.20;2252.80
54796;DHT22;40693;43.884;20.340;2023-02-14T11:54:34;205.20;2252.80
54796;DHT22;40693;43.884;20.340;2023-02-14T11:57:01;205.20;2252.80
54796;DHT22;40693;43.884;20.340;2023-02-14T11:59:46;205.20;2252.80
54796;DHT22;40693;43.884;20.340;2023-02-14T12:02:24;205.20;2252.80
54796;DHT22;40693;43.884;20.340;2023-02-14T12:04:51;205.30;2252.80
54796;DHT22;40693;43.884;20.340;2023-02-14T12:07:23;205.30;2252.80
54796;DHT22;40693;43.884;20.340;2023-02-14T12:12:35;205.30;2252.80
54796;DHT22;40693;43.884;20.340;2023-02-14T12:17:45;205.40;2252.80
54796;DHT22;40693;43.884;20.340;2023-02-14T12:20:15;205.50;2252.80
54796;DHT22;40693;43.884;20.340;2023-02-14T12:22:45;205.50;2252.80
54796;DHT22;40693;43.884;20.340;2023-02-14T12:25:18;205.60;2252.80
54796;DHT22;40693;43.884;20.340;2023-02-14T12:30:15;205.60;2252.80
54796;DHT22;40693;43.884;20.340;2023-02-14T12:32:51;205.70;2252.80
54796;DHT22;40693;43.884;20.340;2023-02-14T12:38:02;230.40;2252.80
54796;DHT22;40693;43.884;20.340;2023-02-14T12:48:20;230.50;2252.80
54796;DHT22;40693;43.884;20.340;2023-02-14T12:53:31;230.50;2252.80
54796;DHT22;40693;43.884;20.340;2023-02-14T12:56:03;230.60;2252.80
54796;DHT22;40693;43.884;20.340;2023-02-14T13:11:33;230.50;2201.60
54796;DHT22;40693;43.884;20.340;2023-02-14T13:21:42;230.50;2201.60
54796;DHT22;40693;43.884;20.340;2023-02-14T13:26:40;230.40;2227.20
54796;DHT22;40693;43.884;20.340;2023-02-14T13:29:12;205.70;2227.20
54796;DHT22;40693;43.884;20.340;2023-02-14T13:31:38;205.70;2227.20
54796;DHT22;40693;43.884;20.340;2023-02-14T13:34:07;205.70;2252.80
54796;DHT22;40693;43.884;20.340;2023-02-14T13:36:40;205.70;2252.80
54796;DHT22;40693;43.884;20.340;2023-02-14T13:39:08;205.70;2252.80
54796;DHT22;40693;43.884;20.340;2023-02-14T13:41:37;205.70;2252.80
54796;DHT22;40693;43.884;20.340;2023-02-14T13:44:06;205.60;2252.80
54796;DHT22;40693;43.884;20.340;2023-02-14T13:48:59;205.70;2252.80
54796;DHT22;40693;43.884;20.340;2023-02-14T13:51:44;205.70;2252.80
54796;DHT22;40693;43.884;20.340;2023-02-14T13:56:55;205.50;2252.80
54796;DHT22;40693;43.884;20.340;2023-02-14T13:59:39;205.50;2252.80
54796;DHT22;40693;43.884;20.340;2023-02-14T14:04:45;205.50;2252.80
54796;DHT22;40693;43.884;20.340;2023-02-14T14:07:15;205.50;2252.80
54796;DHT22;40693;43.884;20.340;2023-02-14T14:12:52;205.50;2252.80
54796;DHT22;40693;43.884;20.340;2023-02-14T14:17:39;205.40;2252.80
54796;DHT22;40693;43.884;20.340;2023-02-14T14:22:49;205.40;2252.80
54796;DHT22;40693;43.884;20.340;2023-02-14T14:25:28;205.40;2252.80
54796;DHT22;40693;43.884;20.340;2023-02-14T14:27:54;205.40;2252.80
54796;DHT22;40693;43.884;20.340;2023-02-14T14:30:24;205.40;2252.80
54796;DHT22;40693;43.884;20.340;2023-02-14T14:32:52;205.40;2252.80
54796;DHT22;40693;43.884;20.340;2023-02-14T14:35:19;205.40;2252.80
54796;DHT22;40693;43.884;20.340;2023-02-14T14:37:49;205.30;2252.80
54796;DHT22;40693;43.884;20.340;2023-02-14T14:40:23;205.30;2252.80
54796;DHT22;40693;43.884;20.340;2023-02-14T14:42:49;205.30;2252.80
54796;DHT22;40693;43.884;20.340;2023-02-14T14:45:19;205.30;2252.80
54796;DHT22;40693;43.884;20.340;2023-02-14T14:47:45;205.20;2252.80
54796;DHT22;40693;43.884;20.340;2023-02-14T14:50:16;205.40;2252.80
54796;DHT22;40693;43.884;20.340;2023-02-14T14:52:42;205.20;2252.80
54796;DHT22;40693;43.884;20.340;2023-02-14T14:55:15;205.20;2252.80
54796;DHT22;40693;43.884;20.340;2023-02-14T14:57:43;205.20;2252.80
54796;DHT22;40693;43.884;20.340;2023-02-14T15:00:17;205.20;2252.80
54796;DHT22;40693;43.884;20.340;2023-02-14T15:02:57;205.20;2252.80
54796;DHT22;40693;43.884;20.340;2023-02-14T15:05:44;205.10;2252.80
54796;DHT22;40693;43.884;20.340;2023-02-14T15:08:27;205.20;2252.80
54796;DHT22;40693;43.884;20.340;2023-02-14T15:10:57;205.30;2252.80
54796;DHT22;40693;43.884;20.340;2023-02-14T15:13:35;205.20;2252.80
54796;DHT22;40693;43.884;20.340;2023-02-14T15:16:34;205.20;2252.80
54796;DHT22;40693;43.884;20.340;2023-02-14T15:19:06;205.20;2252.80
54796;DHT22;40693;43.884;20.340;2023-02-14T15:21:33;205.20;2252.80
54796;DHT22;40693;43.884;20.340;2023-02-14T15:24:00;205.20;2252.80
54796;DHT22;40693;43.884;20.340;2023-02-14T15:26:29;205.20;2252.80
54796;DHT22;40693;43.884;20.340;2023-02-14T15:29:00;205.20;2252.80
54796;DHT22;40693;43.884;20.340;2023-02-14T15:31:44;205.20;2252.80
54796;DHT22;40693;43.884;20.340;2023-02-14T15:34:10;205.10;2252.80
54796;DHT22;40693;43.884;20.340;2023-02-14T15:36:36;205.10;2252.80
54796;DHT22;40693;43.884;20.340;2023-02-14T15:39:03;205.10;2252.80
54796;DHT22;40693;43.884;20.340;2023-02-14T15:41:30;205.10;2252.80
54796;DHT22;40693;43.884;20.340;2023-02-14T15:43:56;205.00;2252.80
54796;DHT22;40693;43.884;20.340;2023-02-14T15:48:48;205.00;2252.80
54796;DHT22;40693;43.884;20.340;2023-02-14T15:51:15;205.00;2252.80
54796;DHT22;40693;43.884;20.340;2023-02-14T15:58:45;204.90;2252.80
54796;DHT22;40693;43.884;20.340;2023-02-14T16:01:11;205.00;2252.80
54796;DHT22;40693;43.884;20.340;2023-02-14T16:03:38;205.00;2252.80
54796;DHT22;40693;43.884;20.340;2023-02-14T16:06:05;204.90;2252.80
54796;DHT22;40693;43.884;20.340;2023-02-14T16:08:34;204.90;2252.80
54796;DHT22;40693;43.884;20.340;2023-02-14T16:11:01;204.90;2252.80
54796;DHT22;40693;43.884;20.340;2023-02-14T16:13:32;204.90;2252.80
54796;DHT22;40693;43.884;20.340;2023-02-14T16:16:05;204.90;2252.80
54796;DHT22;40693;43.884;20.340;2023-02-14T16:18:32;204.90;2252.80
54796;DHT22;40693;43.884;20.340;2023-02-14T16:21:11;204.90;2252.80
54796;DHT22;40693;43.884;20.340;2023-02-14T16:23:38;204.90;2252.80
54796;DHT22;40693;43.884;20.340;2023-02-14T16:26:04;204.90;2252.80
54796;DHT22;40693;43.884;20.340;2023-02-14T16:28:31;204.90;2252.80
54796;DHT22;40693;43.884;20.340;2023-02-14T16:30:57;204.90;2252.80
54796;DHT22;40693;43.884;20.340;2023-02-14T16:33:28;204.90;2252.80
54796;DHT22;40693;43.884;20.340;2023-02-14T16:35:55;205.00;2252.80
54796;DHT22;40693;43.884;20.340;2023-02-14T16:38:22;205.00;2252.80
54796;DHT22;40693;43.884;20.340;2023-02-14T16:40:49;204.90;2252.80
54796;DHT22;40693;43.884;20.340;2023-02-14T16:43:16;204.90;2252.80
54796;DHT22;40693;43.884;20.340;2023-02-14T16:45:42;204.80;2252.80
54796;DHT22;40693;43.884;20.340;2023-02-14T16:48:08;204.80;2252.80
54796;DHT22;40693;43.884;20.340;2023-02-14T16:50:34;204.80;2252.80
54796;DHT22;40693;43.884;20.340;2023-02-14T16:53:01;204.80;2252.80
54796;DHT22;40693;43.884;20.340;2023-02-14T16:55:26;204.80;2252.80
54796;DHT22;40693;43.884;20.340;2023-02-14T16:57:54;204.80;2252.80
54796;DHT22;40693;43.884;20.340;2023-02-14T17:00:20;204.80;2252.80
54796;DHT22;40693;43.884;20.340;2023-02-14T17:02:46;180.10;2252.80
54796;DHT22;40693;43.884;20.340;2023-02-14T17:05:12;180.10;2252.80
54796;DHT22;40693;43.884;20.340;2023-02-14T17:07:38;180.10;2252.80
54796;DHT22;40693;43.884;20.340;2023-02-14T17:10:07;180.10;2252.80